sensor_id;sensor_type;location;lat;lon;timestamp;P1;durP1;ratioP1;P2;durP2;ratioP2
6821;SDS011;3449;48.728;8.968;2023-02-10T00:00:18;49.30;;;20.40;;
6821;SDS011;3449;48.728;8.968;2023-02-10T00:02:45;47.30;;;20.70;;
6821;SDS011;3449;48.728;8.968;2023-02-10T00:05:13;46.90;;;19.63;;
6821;SDS011;3449;48.728;8.968;2023-02-10T00:07:41;46.43;;;19.70;;
6821;SDS011;3449;48.728;8.968;2023-02-10T00:10:08;52.63;;;17.67;;
6821;SDS011;3449;48.728;8.968;2023-02-10T00:12:35;57.33;;;21.20;;
6821;SDS011;3449;48.728;8.968;2023-02-10T00:15:03;38.73;;;14.17;;
6821;SDS011;3449;48.728;8.968;2023-02-10T00:17:31;44.43;;;17.33;;
6821;SDS011;3449;48.728;8.968;2023-02-10T00:19:58;51.87;;;19.80;;
6821;SDS011;3449;48.728;8.968;2023-02-10T00:22:25;44.27;;;18.30;;
6821;SDS011;3449;48.728;8.968;2023-02-10T00:24:53;52.33;;;17.70;;
6821;SDS011;3449;48.728;8.968;2023-02-10T00:27:20;39.10;;;16.90;;
6821;SDS011;3449;48.728;8.968;2023-02-10T00:29:49;48.17;;;18.20;;
6821;SDS011;3449;48.728;8.968;2023-02-10T00:32:16;42.83;;;16.40;;
6821;SDS011;3449;48.728;8.968;2023-02-10T00:34:43;48.27;;;19.03;;
6821;SDS011;3449;48.728;8.968;2023-02-10T00:37:10;37.73;;;16.40;;
6821;SDS011;3449;48.728;8.968;2023-02-10T00:39:37;40.67;;;17.63;;
6821;SDS011;3449;48.728;8.968;2023-02-10T00:42:05;49.57;;;19.50;;
6821;SDS011;3449;48.728;8.968;2023-02-10T00:44:32;45.43;;;17.70;;
6821;SDS011;3449;48.728;8.968;2023-02-10T00:46:59;40.33;;;16.87;;
6821;SDS011;3449;48.728;8.968;2023-02-10T00:49:26;41.57;;;16.40;;
6821;SDS011;3449;48.728;8.968;2023-02-10T00:51:53;45.47;;;17.40;;
6821;SDS011;3449;48.728;8.968;2023-02-10T00:54:20;52.03;;;20.03;;
6821;SDS011;3449;48.728;8.968;2023-02-10T00:56:46;50.27;;;19.33;;
6821;SDS011;3449;48.728;8.968;2023-02-10T00:59:15;48.77;;;19.10;;
6821;SDS011;3449;48.728;8.968;2023-02-10T01:01:42;52.03;;;19.30;;
6821;SDS011;3449;48.728;8.968;2023-02-10T01:04:08;41.83;;;19.43;;
6821;SDS011;3449;48.728;8.968;2023-02-10T01:06:35;51.53;;;20.80;;
6821;SDS011;3449;48.728;8.968;2023-02-10T01:09:02;48.23;;;20.07;;
6821;SDS011;3449;48.728;8.968;2023-02-10T01:11:29;47.93;;;18.30;;
6821;SDS011;3449;48.728;8.968;2023-02-10T01:13:56;48.20;;;16.77;;
6821;SDS011;3449;48.728;8.968;2023-02-10T01:16:24;45.23;;;16.80;;
6821;SDS011;3449;48.728;8.968;2023-02-10T01:18:51;43.37;;;17.70;;
6821;SDS011;3449;48.728;8.968;2023-02-10T01:21:19;48.03;;;18.43;;
6821;SDS011;3449;48.728;8.968;2023-02-10T01:23:47;58.17;;;16.80;;
6821;SDS011;3449;48.728;8.968;2023-02-10T01:26:14;47.33;;;18.10;;
6821;SDS011;3449;48.728;8.968;2023-02-10T01:28:42;45.27;;;18.33;;
6821;SDS011;3449;48.728;8.968;2023-02-10T01:31:10;42.20;;;17.23;;
6821;SDS011;3449;48.728;8.968;2023-02-10T01:33:40;45.47;;;18.10;;
6821;SDS011;3449;48.728;8.968;2023-02-10T01:36:08;47.03;;;17.00;;
6821;SDS011;3449;48.728;8.968;2023-02-10T01:38:37;44.23;;;18.20;;
6821;SDS011;3449;48.728;8.968;2023-02-10T01:41:04;45.23;;;17.40;;
6821;SDS011;3449;48.728;8.968;2023-02-10T01:43:32;48.20;;;17.40;;
6821;SDS011;3449;48.728;8.968;2023-02-10T01:45:59;40.57;;;16.40;;
6821;SDS011;3449;48.728;8.968;2023-02-10T01:48:26;43.87;;;17.47;;
6821;SDS011;3449;48.728;8.968;2023-02-10T01:50:55;38.17;;;17.13;;
6821;SDS011;3449;48.728;8.968;2023-02-10T01:53:26;43.57;;;16.67;;
6821;SDS011;3449;48.728;8.968;2023-02-10T01:55:54;37.47;;;15.97;;
6821;SDS011;3449;48.728;8.968;2023-02-10T01:58:25;47.93;;;17.90;;
6821;SDS011;3449;48.728;8.968;2023-02-10T02:00:53;38.03;;;16.07;;
6821;SDS011;3449;48.728;8.968;2023-02-10T02:03:20;49.13;;;18.77;;
6821;SDS011;3449;48.728;8.968;2023-02-10T02:05:47;51.23;;;19.47;;
6821;SDS011;3449;48.728;8.968;2023-02-10T02:08:16;37.43;;;16.20;;
6821;SDS011;3449;48.728;8.968;2023-02-10T02:10:53;51.30;;;17.57;;
6821;SDS011;3449;48.728;8.968;2023-02-10T02:13:29;42.70;;;17.37;;
6821;SDS011;3449;48.728;8.968;2023-02-10T02:16:06;46.00;;;17.93;;
6821;SDS011;3449;48.728;8.968;2023-02-10T02:18:45;42.17;;;17.03;;
6821;SDS011;3449;48.728;8.968;2023-02-10T02:21:34;46.37;;;17.17;;
6821;SDS011;3449;48.728;8.968;2023-02-10T02:27:11;45.87;;;18.20;;
6821;SDS011;3449;48.728;8.968;2023-02-10T02:30:00;41.47;;;17.10;;
6821;SDS011;3449;48.728;8.968;2023-02-10T02:32:49;44.83;;;14.60;;
6821;SDS011;3449;48.728;8.968;2023-02-10T02:35:21;49.70;;;19.60;;
6821;SDS011;3449;48.728;8.968;2023-02-10T02:37:52;47.47;;;17.60;;
6821;SDS011;3449;48.728;8.968;2023-02-10T02:40:20;41.30;;;16.87;;
6821;SDS011;3449;48.728;8.968;2023-02-10T02:42:47;58.10;;;16.63;;
6821;SDS011;3449;48.728;8.968;2023-02-10T02:45:16;55.53;;;20.67;;
6821;SDS011;3449;48.728;8.968;2023-02-10T02:47:53;46.00;;;17.30;;
6821;SDS011;3449;48.728;8.968;2023-02-10T02:50:30;45.10;;;17.47;;
6821;SDS011;3449;48.728;8.968;2023-02-10T02:53:05;43.67;;;16.70;;
6821;SDS011;3449;48.728;8.968;2023-02-10T02:55:43;41.23;;;17.20;;
6821;SDS011;3449;48.728;8.968;2023-02-10T02:58:17;43.33;;;17.90;;
6821;SDS011;3449;48.728;8.968;2023-02-10T03:00:49;43.77;;;18.43;;
6821;SDS011;3449;48.728;8.968;2023-02-10T03:03:18;46.27;;;17.80;;
6821;SDS011;3449;48.728;8.968;2023-02-10T03:05:45;49.33;;;18.30;;
6821;SDS011;3449;48.728;8.968;2023-02-10T03:08:12;45.60;;;17.00;;
6821;SDS011;3449;48.728;8.968;2023-02-10T03:10:39;42.90;;;17.50;;
6821;SDS011;3449;48.728;8.968;2023-02-10T03:13:06;51.83;;;18.87;;
6821;SDS011;3449;48.728;8.968;2023-02-10T03:15:33;46.83;;;19.33;;
6821;SDS011;3449;48.728;8.968;2023-02-10T03:18:00;41.53;;;17.03;;
6821;SDS011;3449;48.728;8.968;2023-02-10T03:20:28;45.63;;;18.30;;
6821;SDS011;3449;48.728;8.968;2023-02-10T03:22:55;45.10;;;16.70;;
6821;SDS011;3449;48.728;8.968;2023-02-10T03:25:21;49.67;;;17.20;;
6821;SDS011;3449;48.728;8.968;2023-02-10T03:27:48;63.00;;;18.07;;
6821;SDS011;3449;48.728;8.968;2023-02-10T03:30:15;49.03;;;17.17;;
6821;SDS011;3449;48.728;8.968;2023-02-10T03:32:42;43.93;;;18.77;;
6821;SDS011;3449;48.728;8.968;2023-02-10T03:35:11;49.00;;;19.07;;
6821;SDS011;3449;48.728;8.968;2023-02-10T03:37:39;45.67;;;18.43;;
6821;SDS011;3449;48.728;8.968;2023-02-10T03:40:06;56.20;;;18.20;;
6821;SDS011;3449;48.728;8.968;2023-02-10T03:42:34;47.97;;;22.07;;
6821;SDS011;3449;48.728;8.968;2023-02-10T03:45:01;63.93;;;24.60;;
6821;SDS011;3449;48.728;8.968;2023-02-10T03:47:28;88.73;;;36.10;;
6821;SDS011;3449;48.728;8.968;2023-02-10T03:49:54;131.70;;;44.23;;
6821;SDS011;3449;48.728;8.968;2023-02-10T03:52:21;148.70;;;52.03;;
6821;SDS011;3449;48.728;8.968;2023-02-10T03:54:50;134.60;;;48.30;;
6821;SDS011;3449;48.728;8.968;2023-02-10T03:57:16;117.43;;;43.70;;
6821;SDS011;3449;48.728;8.968;2023-02-10T03:59:44;89.50;;;34.27;;
6821;SDS011;3449;48.728;8.968;2023-02-10T04:02:11;58.30;;;26.63;;
6821;SDS011;3449;48.728;8.968;2023-02-10T04:04:38;45.27;;;19.50;;
6821;SDS011;3449;48.728;8.968;2023-02-10T04:07:05;55.03;;;19.07;;
6821;SDS011;3449;48.728;8.968;2023-02-10T04:09:31;42.50;;;19.10;;
6821;SDS011;3449;48.728;8.968;2023-02-10T04:12:00;46.43;;;17.17;;
6821;SDS011;3449;48.728;8.968;2023-02-10T04:14:26;42.20;;;16.60;;
6821;SDS011;3449;48.728;8.968;2023-02-10T04:16:53;41.03;;;18.03;;
6821;SDS011;3449;48.728;8.968;2023-02-10T04:19:20;49.40;;;19.37;;
6821;SDS011;3449;48.728;8.968;2023-02-10T04:21:47;32.13;;;14.80;;
6821;SDS011;3449;48.728;8.968;2023-02-10T04:24:14;38.50;;;18.10;;
6821;SDS011;3449;48.728;8.968;2023-02-10T04:26:41;51.50;;;18.83;;
6821;SDS011;3449;48.728;8.968;2023-02-10T04:29:09;41.67;;;16.10;;
6821;SDS011;3449;48.728;8.968;2023-02-10T04:31:36;49.80;;;19.67;;
6821;SDS011;3449;48.728;8.968;2023-02-10T04:34:03;48.40;;;16.93;;
6821;SDS011;3449;48.728;8.968;2023-02-10T04:36:30;43.17;;;18.13;;
6821;SDS011;3449;48.728;8.968;2023-02-10T04:38:57;41.37;;;16.87;;
6821;SDS011;3449;48.728;8.968;2023-02-10T04:41:25;46.23;;;19.67;;
6821;SDS011;3449;48.728;8.968;2023-02-10T04:43:52;46.53;;;18.27;;
6821;SDS011;3449;48.728;8.968;2023-02-10T04:46:21;52.23;;;18.40;;
6821;SDS011;3449;48.728;8.968;2023-02-10T04:48:47;38.20;;;16.80;;
6821;SDS011;3449;48.728;8.968;2023-02-10T04:51:14;37.97;;;16.13;;
6821;SDS011;3449;48.728;8.968;2023-02-10T04:53:41;42.33;;;16.87;;
6821;SDS011;3449;48.728;8.968;2023-02-10T04:56:09;47.10;;;17.23;;
6821;SDS011;3449;48.728;8.968;2023-02-10T04:58:36;48.17;;;17.37;;
6821;SDS011;3449;48.728;8.968;2023-02-10T05:01:03;45.40;;;18.00;;
6821;SDS011;3449;48.728;8.968;2023-02-10T05:03:31;43.00;;;17.90;;
6821;SDS011;3449;48.728;8.968;2023-02-10T05:05:58;39.90;;;15.70;;
6821;SDS011;3449;48.728;8.968;2023-02-10T05:08:25;40.90;;;16.77;;
6821;SDS011;3449;48.728;8.968;2023-02-10T05:10:52;51.00;;;18.93;;
6821;SDS011;3449;48.728;8.968;2023-02-10T05:13:19;48.80;;;16.87;;
6821;SDS011;3449;48.728;8.968;2023-02-10T05:15:46;43.83;;;17.80;;
6821;SDS011;3449;48.728;8.968;2023-02-10T05:18:13;40.40;;;17.50;;
6821;SDS011;3449;48.728;8.968;2023-02-10T05:20:42;47.90;;;18.00;;
6821;SDS011;3449;48.728;8.968;2023-02-10T05:23:08;46.70;;;19.43;;
6821;SDS011;3449;48.728;8.968;2023-02-10T05:25:35;42.57;;;17.40;;
6821;SDS011;3449;48.728;8.968;2023-02-10T05:28:02;39.63;;;15.47;;
6821;SDS011;3449;48.728;8.968;2023-02-10T05:30:29;43.93;;;16.07;;
6821;SDS011;3449;48.728;8.968;2023-02-10T05:32:56;48.80;;;19.63;;
6821;SDS011;3449;48.728;8.968;2023-02-10T05:35:23;42.33;;;17.23;;
6821;SDS011;3449;48.728;8.968;2023-02-10T05:37:51;47.80;;;18.13;;
6821;SDS011;3449;48.728;8.968;2023-02-10T05:40:18;42.80;;;16.93;;
6821;SDS011;3449;48.728;8.968;2023-02-10T05:42:45;37.60;;;15.63;;
6821;SDS011;3449;48.728;8.968;2023-02-10T05:45:12;39.03;;;15.20;;
6821;SDS011;3449;48.728;8.968;2023-02-10T05:47:38;54.47;;;17.87;;
6821;SDS011;3449;48.728;8.968;2023-02-10T05:50:05;43.93;;;16.20;;
6821;SDS011;3449;48.728;8.968;2023-02-10T05:52:33;37.73;;;15.50;;
6821;SDS011;3449;48.728;8.968;2023-02-10T05:55:02;39.97;;;16.17;;
6821;SDS011;3449;48.728;8.968;2023-02-10T05:57:29;39.47;;;14.70;;
6821;SDS011;3449;48.728;8.968;2023-02-10T05:59:56;41.40;;;15.90;;
6821;SDS011;3449;48.728;8.968;2023-02-10T06:02:23;36.90;;;17.40;;
6821;SDS011;3449;48.728;8.968;2023-02-10T06:04:50;45.60;;;18.07;;
6821;SDS011;3449;48.728;8.968;2023-02-10T06:07:17;50.90;;;18.80;;
6821;SDS011;3449;48.728;8.968;2023-02-10T06:09:44;40.00;;;17.30;;
6821;SDS011;3449;48.728;8.968;2023-02-10T06:12:12;47.97;;;17.70;;
6821;SDS011;3449;48.728;8.968;2023-02-10T06:14:39;33.87;;;16.20;;
6821;SDS011;3449;48.728;8.968;2023-02-10T06:17:06;41.03;;;16.10;;
6821;SDS011;3449;48.728;8.968;2023-02-10T06:19:34;49.93;;;16.00;;
6821;SDS011;3449;48.728;8.968;2023-02-10T06:22:01;36.87;;;16.57;;
6821;SDS011;3449;48.728;8.968;2023-02-10T06:24:29;50.83;;;16.90;;
6821;SDS011;3449;48.728;8.968;2023-02-10T06:26:56;50.40;;;18.53;;
6821;SDS011;3449;48.728;8.968;2023-02-10T06:29:24;39.40;;;16.90;;
6821;SDS011;3449;48.728;8.968;2023-02-10T06:31:51;40.47;;;16.60;;
6821;SDS011;3449;48.728;8.968;2023-02-10T06:34:18;51.63;;;18.33;;
6821;SDS011;3449;48.728;8.968;2023-02-10T06:36:45;41.30;;;17.03;;
6821;SDS011;3449;48.728;8.968;2023-02-10T06:39:12;39.30;;;16.17;;
6821;SDS011;3449;48.728;8.968;2023-02-10T06:41:38;46.40;;;16.80;;
6821;SDS011;3449;48.728;8.968;2023-02-10T06:44:06;46.87;;;16.90;;
6821;SDS011;3449;48.728;8.968;2023-02-10T06:46:34;42.67;;;16.37;;
6821;SDS011;3449;48.728;8.968;2023-02-10T06:49:01;46.47;;;17.97;;
6821;SDS011;3449;48.728;8.968;2023-02-10T06:51:28;56.73;;;16.70;;
6821;SDS011;3449;48.728;8.968;2023-02-10T06:53:55;44.33;;;17.03;;
6821;SDS011;3449;48.728;8.968;2023-02-10T06:56:22;51.47;;;19.50;;
6821;SDS011;3449;48.728;8.968;2023-02-10T06:58:48;37.43;;;17.20;;
6821;SDS011;3449;48.728;8.968;2023-02-10T07:01:16;41.53;;;17.17;;
6821;SDS011;3449;48.728;8.968;2023-02-10T07:03:45;37.87;;;16.27;;
6821;SDS011;3449;48.728;8.968;2023-02-10T07:06:12;74.03;;;18.80;;
6821;SDS011;3449;48.728;8.968;2023-02-10T07:08:39;47.53;;;16.33;;
6821;SDS011;3449;48.728;8.968;2023-02-10T07:11:05;47.23;;;17.50;;
6821;SDS011;3449;48.728;8.968;2023-02-10T07:13:32;48.40;;;18.40;;
6821;SDS011;3449;48.728;8.968;2023-02-10T07:15:59;47.10;;;18.07;;
6821;SDS011;3449;48.728;8.968;2023-02-10T07:18:26;39.50;;;16.10;;
6821;SDS011;3449;48.728;8.968;2023-02-10T07:20:56;42.97;;;17.80;;
6821;SDS011;3449;48.728;8.968;2023-02-10T07:23:23;38.97;;;16.27;;
6821;SDS011;3449;48.728;8.968;2023-02-10T07:25:50;37.83;;;16.47;;
6821;SDS011;3449;48.728;8.968;2023-02-10T07:28:17;44.33;;;17.60;;
6821;SDS011;3449;48.728;8.968;2023-02-10T07:30:44;41.60;;;17.27;;
6821;SDS011;3449;48.728;8.968;2023-02-10T07:33:11;40.97;;;16.90;;
6821;SDS011;3449;48.728;8.968;2023-02-10T07:35:38;45.33;;;16.57;;
6821;SDS011;3449;48.728;8.968;2023-02-10T07:38:06;41.27;;;17.93;;
6821;SDS011;3449;48.728;8.968;2023-02-10T07:40:33;46.03;;;16.67;;
6821;SDS011;3449;48.728;8.968;2023-02-10T07:43:00;42.63;;;16.93;;
6821;SDS011;3449;48.728;8.968;2023-02-10T07:45:27;48.63;;;15.97;;
6821;SDS011;3449;48.728;8.968;2023-02-10T07:47:55;39.60;;;17.10;;
6821;SDS011;3449;48.728;8.968;2023-02-10T07:50:22;38.00;;;16.57;;
6821;SDS011;3449;48.728;8.968;2023-02-10T07:52:49;39.47;;;17.67;;
6821;SDS011;3449;48.728;8.968;2023-02-10T07:55:19;47.87;;;20.03;;
6821;SDS011;3449;48.728;8.968;2023-02-10T07:57:45;48.83;;;19.77;;
6821;SDS011;3449;48.728;8.968;2023-02-10T08:00:13;40.57;;;15.87;;
6821;SDS011;3449;48.728;8.968;2023-02-10T08:02:40;33.80;;;14.30;;
6821;SDS011;3449;48.728;8.968;2023-02-10T08:05:07;47.23;;;16.93;;
6821;SDS011;3449;48.728;8.968;2023-02-10T08:07:35;41.57;;;15.53;;
6821;SDS011;3449;48.728;8.968;2023-02-10T08:10:02;32.67;;;13.20;;
6821;SDS011;3449;48.728;8.968;2023-02-10T08:12:30;39.03;;;15.50;;
6821;SDS011;3449;48.728;8.968;2023-02-10T08:14:58;35.40;;;13.20;;
6821;SDS011;3449;48.728;8.968;2023-02-10T08:17:26;37.23;;;15.17;;
6821;SDS011;3449;48.728;8.968;2023-02-10T08:20:04;27.23;;;13.03;;
6821;SDS011;3449;48.728;8.968;2023-02-10T08:22:32;28.37;;;12.90;;
6821;SDS011;3449;48.728;8.968;2023-02-10T08:25:00;40.50;;;12.90;;
6821;SDS011;3449;48.728;8.968;2023-02-10T08:27:27;33.90;;;14.73;;
6821;SDS011;3449;48.728;8.968;2023-02-10T08:29:56;31.60;;;14.90;;
6821;SDS011;3449;48.728;8.968;2023-02-10T08:32:23;33.73;;;14.47;;
6821;SDS011;3449;48.728;8.968;2023-02-10T08:34:49;33.40;;;15.37;;
6821;SDS011;3449;48.728;8.968;2023-02-10T08:37:17;35.10;;;14.50;;
6821;SDS011;3449;48.728;8.968;2023-02-10T08:39:44;31.10;;;14.13;;
6821;SDS011;3449;48.728;8.968;2023-02-10T08:42:11;36.73;;;13.77;;
6821;SDS011;3449;48.728;8.968;2023-02-10T08:44:38;33.27;;;13.40;;
6821;SDS011;3449;48.728;8.968;2023-02-10T08:47:06;30.10;;;12.93;;
6821;SDS011;3449;48.728;8.968;2023-02-10T08:49:36;27.47;;;13.90;;
6821;SDS011;3449;48.728;8.968;2023-02-10T08:52:03;30.40;;;14.10;;
6821;SDS011;3449;48.728;8.968;2023-02-10T08:54:30;37.47;;;13.47;;
6821;SDS011;3449;48.728;8.968;2023-02-10T08:56:57;32.47;;;13.17;;
6821;SDS011;3449;48.728;8.968;2023-02-10T08:59:25;34.70;;;15.87;;
6821;SDS011;3449;48.728;8.968;2023-02-10T09:01:52;37.40;;;13.80;;
6821;SDS011;3449;48.728;8.968;2023-02-10T09:04:20;36.17;;;15.20;;
6821;SDS011;3449;48.728;8.968;2023-02-10T09:06:47;35.93;;;16.03;;
6821;SDS011;3449;48.728;8.968;2023-02-10T09:09:15;40.20;;;16.10;;
6821;SDS011;3449;48.728;8.968;2023-02-10T09:11:44;40.93;;;16.87;;
6821;SDS011;3449;48.728;8.968;2023-02-10T09:14:12;37.30;;;17.37;;
6821;SDS011;3449;48.728;8.968;2023-02-10T09:16:39;38.90;;;16.17;;
6821;SDS011;3449;48.728;8.968;2023-02-10T09:19:06;35.57;;;16.17;;
6821;SDS011;3449;48.728;8.968;2023-02-10T09:21:34;39.27;;;16.17;;
6821;SDS011;3449;48.728;8.968;2023-02-10T09:24:01;39.27;;;17.70;;
6821;SDS011;3449;48.728;8.968;2023-02-10T09:26:28;38.80;;;16.73;;
6821;SDS011;3449;48.728;8.968;2023-02-10T09:28:55;39.20;;;17.17;;
6821;SDS011;3449;48.728;8.968;2023-02-10T09:31:22;38.10;;;16.00;;
6821;SDS011;3449;48.728;8.968;2023-02-10T09:33:49;42.63;;;16.50;;
6821;SDS011;3449;48.728;8.968;2023-02-10T09:36:17;45.47;;;16.80;;
6821;SDS011;3449;48.728;8.968;2023-02-10T09:38:46;31.77;;;15.10;;
6821;SDS011;3449;48.728;8.968;2023-02-10T09:41:17;42.47;;;16.90;;
6821;SDS011;3449;48.728;8.968;2023-02-10T09:44:03;35.70;;;15.40;;
6821;SDS011;3449;48.728;8.968;2023-02-10T09:46:42;43.50;;;16.40;;
6821;SDS011;3449;48.728;8.968;2023-02-10T09:49:27;38.43;;;15.57;;
6821;SDS011;3449;48.728;8.968;2023-02-10T09:52:15;36.33;;;16.27;;
6821;SDS011;3449;48.728;8.968;2023-02-10T09:54:50;39.53;;;17.57;;
6821;SDS011;3449;48.728;8.968;2023-02-10T09:57:18;34.97;;;15.83;;
6821;SDS011;3449;48.728;8.968;2023-02-10T09:59:49;34.97;;;15.20;;
6821;SDS011;3449;48.728;8.968;2023-02-10T10:02:21;34.00;;;15.60;;
6821;SDS011;3449;48.728;8.968;2023-02-10T10:04:53;39.77;;;15.73;;
6821;SDS011;3449;48.728;8.968;2023-02-10T10:07:23;38.60;;;16.87;;
6821;SDS011;3449;48.728;8.968;2023-02-10T10:09:58;34.23;;;16.20;;
6821;SDS011;3449;48.728;8.968;2023-02-10T10:12:28;34.67;;;14.73;;
6821;SDS011;3449;48.728;8.968;2023-02-10T10:14:55;35.20;;;16.00;;
6821;SDS011;3449;48.728;8.968;2023-02-10T10:17:33;40.43;;;16.77;;
6821;SDS011;3449;48.728;8.968;2023-02-10T10:20:17;37.97;;;16.53;;
6821;SDS011;3449;48.728;8.968;2023-02-10T10:22:56;33.63;;;15.43;;
6821;SDS011;3449;48.728;8.968;2023-02-10T10:25:43;34.03;;;14.97;;
6821;SDS011;3449;48.728;8.968;2023-02-10T10:28:31;44.03;;;15.23;;
6821;SDS011;3449;48.728;8.968;2023-02-10T10:31:07;28.20;;;13.50;;
6821;SDS011;3449;48.728;8.968;2023-02-10T10:33:40;32.90;;;13.77;;
6821;SDS011;3449;48.728;8.968;2023-02-10T10:36:11;35.00;;;14.37;;
6821;SDS011;3449;48.728;8.968;2023-02-10T10:38:42;28.80;;;13.63;;
6821;SDS011;3449;48.728;8.968;2023-02-10T10:41:15;34.70;;;14.03;;
6821;SDS011;3449;48.728;8.968;2023-02-10T10:43:44;28.60;;;12.87;;
6821;SDS011;3449;48.728;8.968;2023-02-10T10:46:14;29.97;;;11.97;;
6821;SDS011;3449;48.728;8.968;2023-02-10T10:48:45;28.63;;;13.17;;
6821;SDS011;3449;48.728;8.968;2023-02-10T10:51:12;29.87;;;13.70;;
6821;SDS011;3449;48.728;8.968;2023-02-10T10:53:41;29.37;;;13.43;;
6821;SDS011;3449;48.728;8.968;2023-02-10T10:56:12;29.70;;;13.10;;
6821;SDS011;3449;48.728;8.968;2023-02-10T10:58:45;29.53;;;11.97;;
6821;SDS011;3449;48.728;8.968;2023-02-10T11:01:14;33.33;;;13.70;;
6821;SDS011;3449;48.728;8.968;2023-02-10T11:03:43;25.90;;;12.03;;
6821;SDS011;3449;48.728;8.968;2023-02-10T11:06:11;26.50;;;12.40;;
6821;SDS011;3449;48.728;8.968;2023-02-10T11:08:39;21.27;;;11.90;;
6821;SDS011;3449;48.728;8.968;2023-02-10T11:11:10;30.20;;;12.70;;
6821;SDS011;3449;48.728;8.968;2023-02-10T11:13:49;28.10;;;12.50;;
6821;SDS011;3449;48.728;8.968;2023-02-10T11:16:18;24.30;;;11.20;;
6821;SDS011;3449;48.728;8.968;2023-02-10T11:18:53;29.13;;;11.83;;
6821;SDS011;3449;48.728;8.968;2023-02-10T11:21:32;27.20;;;12.63;;
6821;SDS011;3449;48.728;8.968;2023-02-10T11:24:00;24.47;;;10.83;;
6821;SDS011;3449;48.728;8.968;2023-02-10T11:26:27;26.70;;;12.57;;
6821;SDS011;3449;48.728;8.968;2023-02-10T11:28:55;32.30;;;13.20;;
6821;SDS011;3449;48.728;8.968;2023-02-10T11:31:25;26.57;;;12.63;;
6821;SDS011;3449;48.728;8.968;2023-02-10T11:33:57;28.90;;;14.40;;
6821;SDS011;3449;48.728;8.968;2023-02-10T11:36:30;29.30;;;12.67;;
6821;SDS011;3449;48.728;8.968;2023-02-10T11:39:02;24.93;;;11.97;;
6821;SDS011;3449;48.728;8.968;2023-02-10T11:41:31;25.50;;;12.57;;
6821;SDS011;3449;48.728;8.968;2023-02-10T11:44:01;30.00;;;12.97;;
6821;SDS011;3449;48.728;8.968;2023-02-10T11:46:30;24.53;;;11.83;;
6821;SDS011;3449;48.728;8.968;2023-02-10T11:48:58;26.70;;;11.67;;
6821;SDS011;3449;48.728;8.968;2023-02-10T11:51:27;25.50;;;11.67;;
6821;SDS011;3449;48.728;8.968;2023-02-10T11:53:54;25.77;;;12.53;;
6821;SDS011;3449;48.728;8.968;2023-02-10T11:56:24;23.03;;;12.63;;
6821;SDS011;3449;48.728;8.968;2023-02-10T11:59:21;25.50;;;12.07;;
6821;SDS011;3449;48.728;8.968;2023-02-10T12:01:54;26.63;;;11.10;;
6821;SDS011;3449;48.728;8.968;2023-02-10T12:04:44;28.97;;;13.33;;
6821;SDS011;3449;48.728;8.968;2023-02-10T12:07:25;26.40;;;14.13;;
6821;SDS011;3449;48.728;8.968;2023-02-10T12:10:01;28.60;;;12.70;;
6821;SDS011;3449;48.728;8.968;2023-02-10T12:12:36;25.90;;;12.40;;
6821;SDS011;3449;48.728;8.968;2023-02-10T12:15:13;27.30;;;11.30;;
6821;SDS011;3449;48.728;8.968;2023-02-10T12:17:48;23.67;;;11.03;;
6821;SDS011;3449;48.728;8.968;2023-02-10T12:20:29;26.50;;;12.93;;
6821;SDS011;3449;48.728;8.968;2023-02-10T12:23:08;32.70;;;13.57;;
6821;SDS011;3449;48.728;8.968;2023-02-10T12:25:52;23.73;;;12.53;;
6821;SDS011;3449;48.728;8.968;2023-02-10T12:28:29;21.53;;;11.00;;
6821;SDS011;3449;48.728;8.968;2023-02-10T12:31:05;21.77;;;10.73;;
6821;SDS011;3449;48.728;8.968;2023-02-10T12:33:42;24.27;;;12.73;;
6821;SDS011;3449;48.728;8.968;2023-02-10T12:36:19;22.87;;;11.80;;
6821;SDS011;3449;48.728;8.968;2023-02-10T12:38:56;21.90;;;12.03;;
6821;SDS011;3449;48.728;8.968;2023-02-10T12:41:31;20.97;;;11.90;;
6821;SDS011;3449;48.728;8.968;2023-02-10T12:44:11;20.43;;;10.47;;
6821;SDS011;3449;48.728;8.968;2023-02-10T12:46:54;23.63;;;11.60;;
6821;SDS011;3449;48.728;8.968;2023-02-10T12:49:34;20.57;;;11.50;;
6821;SDS011;3449;48.728;8.968;2023-02-10T12:52:09;24.33;;;11.10;;
6821;SDS011;3449;48.728;8.968;2023-02-10T12:54:41;21.53;;;11.50;;
6821;SDS011;3449;48.728;8.968;2023-02-10T12:57:14;24.50;;;11.87;;
6821;SDS011;3449;48.728;8.968;2023-02-10T12:59:50;23.87;;;11.87;;
6821;SDS011;3449;48.728;8.968;2023-02-10T13:02:24;23.63;;;12.47;;
6821;SDS011;3449;48.728;8.968;2023-02-10T13:04:57;21.90;;;11.57;;
6821;SDS011;3449;48.728;8.968;2023-02-10T13:07:32;25.10;;;13.00;;
6821;SDS011;3449;48.728;8.968;2023-02-10T13:10:09;22.80;;;11.90;;
6821;SDS011;3449;48.728;8.968;2023-02-10T13:12:45;23.20;;;12.17;;
6821;SDS011;3449;48.728;8.968;2023-02-10T13:15:15;25.83;;;12.37;;
6821;SDS011;3449;48.728;8.968;2023-02-10T13:17:46;25.53;;;11.00;;
6821;SDS011;3449;48.728;8.968;2023-02-10T13:23:10;23.43;;;12.20;;
6821;SDS011;3449;48.728;8.968;2023-02-10T13:25:48;24.67;;;12.37;;
6821;SDS011;3449;48.728;8.968;2023-02-10T13:28:25;22.53;;;11.60;;
6821;SDS011;3449;48.728;8.968;2023-02-10T13:31:12;25.27;;;11.87;;
6821;SDS011;3449;48.728;8.968;2023-02-10T13:33:53;24.03;;;12.03;;
6821;SDS011;3449;48.728;8.968;2023-02-10T13:36:27;33.57;;;13.30;;
6821;SDS011;3449;48.728;8.968;2023-02-10T13:38:58;25.03;;;12.70;;
6821;SDS011;3449;48.728;8.968;2023-02-10T13:41:29;28.20;;;13.00;;
6821;SDS011;3449;48.728;8.968;2023-02-10T13:44:14;28.07;;;12.83;;
6821;SDS011;3449;48.728;8.968;2023-02-10T13:46:46;33.20;;;11.97;;
6821;SDS011;3449;48.728;8.968;2023-02-10T13:49:21;29.37;;;12.50;;
6821;SDS011;3449;48.728;8.968;2023-02-10T13:51:49;25.80;;;11.87;;
6821;SDS011;3449;48.728;8.968;2023-02-10T13:54:26;31.10;;;12.47;;
6821;SDS011;3449;48.728;8.968;2023-02-10T13:56:55;29.87;;;11.80;;
6821;SDS011;3449;48.728;8.968;2023-02-10T13:59:24;24.83;;;11.43;;
6821;SDS011;3449;48.728;8.968;2023-02-10T14:02:08;31.33;;;13.13;;
6821;SDS011;3449;48.728;8.968;2023-02-10T14:04:49;25.83;;;13.20;;
6821;SDS011;3449;48.728;8.968;2023-02-10T14:07:31;24.23;;;12.07;;
6821;SDS011;3449;48.728;8.968;2023-02-10T14:10:01;30.70;;;13.40;;
6821;SDS011;3449;48.728;8.968;2023-02-10T14:12:31;32.70;;;15.20;;
6821;SDS011;3449;48.728;8.968;2023-02-10T14:15:17;22.53;;;11.87;;
6821;SDS011;3449;48.728;8.968;2023-02-10T14:17:52;28.13;;;12.10;;
6821;SDS011;3449;48.728;8.968;2023-02-10T14:20:27;28.73;;;13.53;;
6821;SDS011;3449;48.728;8.968;2023-02-10T14:22:57;34.57;;;15.27;;
6821;SDS011;3449;48.728;8.968;2023-02-10T14:25:28;30.07;;;14.00;;
6821;SDS011;3449;48.728;8.968;2023-02-10T14:27:57;30.80;;;13.67;;
6821;SDS011;3449;48.728;8.968;2023-02-10T14:30:27;30.87;;;12.77;;
6821;SDS011;3449;48.728;8.968;2023-02-10T14:32:58;28.03;;;12.97;;
6821;SDS011;3449;48.728;8.968;2023-02-10T14:35:27;31.03;;;13.77;;
6821;SDS011;3449;48.728;8.968;2023-02-10T14:37:56;29.50;;;13.93;;
6821;SDS011;3449;48.728;8.968;2023-02-10T14:40:24;38.83;;;13.90;;
6821;SDS011;3449;48.728;8.968;2023-02-10T14:42:53;25.03;;;11.77;;
6821;SDS011;3449;48.728;8.968;2023-02-10T14:45:21;28.47;;;13.83;;
6821;SDS011;3449;48.728;8.968;2023-02-10T14:47:51;30.43;;;14.07;;
6821;SDS011;3449;48.728;8.968;2023-02-10T14:50:22;29.00;;;13.87;;
6821;SDS011;3449;48.728;8.968;2023-02-10T14:52:51;33.43;;;13.30;;
6821;SDS011;3449;48.728;8.968;2023-02-10T14:55:23;30.30;;;13.67;;
6821;SDS011;3449;48.728;8.968;2023-02-10T14:57:50;29.43;;;13.90;;
6821;SDS011;3449;48.728;8.968;2023-02-10T15:00:18;29.00;;;13.40;;
6821;SDS011;3449;48.728;8.968;2023-02-10T15:02:47;34.17;;;16.60;;
6821;SDS011;3449;48.728;8.968;2023-02-10T15:05:18;28.60;;;14.20;;
6821;SDS011;3449;48.728;8.968;2023-02-10T15:07:48;34.80;;;14.33;;
6821;SDS011;3449;48.728;8.968;2023-02-10T15:10:22;28.93;;;13.50;;